Lac-Bouchette, Canada
Current Conditions -  °F | °C
As of 5:00 AM on Monday 20 Oct 2014 (Local Time) from CYRJ Reporting Station
Overcast Overcast  
Wind Chill: 32°   Ceiling: 3500
Heat Index: 36°   Visibility: 25mi
Dew Point: 27°   Wind: 5mph
Humidity: 70%   Direction: 290°WNW
Pressure: 29.85"   Gusts: NA
Location:  48.27°N, 72.17°W
Report Text: CYRJ 200900Z 29004KT 25SM OVC035 02/M03 A2985 RMK SC8 SLP116
Loading
Personal Weather Stations






























Interactive Weather Map
Tropical Storm Tracking
New forecast layout! Learn more

10-Day Weather Forecast

Advertisements
Track Severe Weather on mobile